sensor_id;sensor_type;location;lat;lon;timestamp;P1;durP1;ratioP1;P2;durP2;ratioP2
84858;SDS011;75115;42.984;23.244;2024-02-23T00:02:24;12.23;;;6.88;;
84858;SDS011;75115;42.984;23.244;2024-02-23T00:04:49;14.30;;;7.32;;
84858;SDS011;75115;42.984;23.244;2024-02-23T00:07:15;15.30;;;7.60;;
84858;SDS011;75115;42.984;23.244;2024-02-23T00:09:40;18.10;;;7.75;;
84858;SDS011;75115;42.984;23.244;2024-02-23T00:12:06;17.20;;;7.82;;
84858;SDS011;75115;42.984;23.244;2024-02-23T00:14:33;14.77;;;7.90;;
84858;SDS011;75115;42.984;23.244;2024-02-23T00:17:01;15.77;;;7.90;;
84858;SDS011;75115;42.984;23.244;2024-02-23T00:19:29;14.63;;;7.85;;
84858;SDS011;75115;42.984;23.244;2024-02-23T00:21:55;15.63;;;8.43;;
84858;SDS011;75115;42.984;23.244;2024-02-23T00:24:21;13.55;;;7.53;;
84858;SDS011;75115;42.984;23.244;2024-02-23T00:26:47;14.13;;;7.70;;
84858;SDS011;75115;42.984;23.244;2024-02-23T00:29:13;14.75;;;7.70;;
84858;SDS011;75115;42.984;23.244;2024-02-23T00:31:38;12.43;;;7.82;;
84858;SDS011;75115;42.984;23.244;2024-02-23T00:34:06;15.52;;;8.43;;
84858;SDS011;75115;42.984;23.244;2024-02-23T00:36:35;17.65;;;9.05;;
84858;SDS011;75115;42.984;23.244;2024-02-23T00:39:01;18.48;;;9.30;;
84858;SDS011;75115;42.984;23.244;2024-02-23T00:41:27;18.90;;;8.23;;
84858;SDS011;75115;42.984;23.244;2024-02-23T00:43:52;19.75;;;8.50;;
84858;SDS011;75115;42.984;23.244;2024-02-23T00:46:18;20.92;;;9.00;;
84858;SDS011;75115;42.984;23.244;2024-02-23T00:48:43;21.65;;;9.32;;
84858;SDS011;75115;42.984;23.244;2024-02-23T00:51:09;16.05;;;7.90;;
84858;SDS011;75115;42.984;23.244;2024-02-23T00:53:34;14.35;;;7.60;;
84858;SDS011;75115;42.984;23.244;2024-02-23T00:55:59;17.42;;;8.13;;
84858;SDS011;75115;42.984;23.244;2024-02-23T00:58:25;14.55;;;8.35;;
84858;SDS011;75115;42.984;23.244;2024-02-23T01:00:50;16.58;;;8.15;;
84858;SDS011;75115;42.984;23.244;2024-02-23T01:03:16;17.35;;;9.23;;
84858;SDS011;75115;42.984;23.244;2024-02-23T01:05:41;20.75;;;8.65;;
84858;SDS011;75115;42.984;23.244;2024-02-23T01:08:07;18.42;;;9.10;;
84858;SDS011;75115;42.984;23.244;2024-02-23T01:10:33;18.75;;;8.60;;
84858;SDS011;75115;42.984;23.244;2024-02-23T01:12:58;21.38;;;8.27;;
84858;SDS011;75115;42.984;23.244;2024-02-23T01:15:24;21.95;;;9.65;;
84858;SDS011;75115;42.984;23.244;2024-02-23T01:17:49;18.30;;;9.05;;
84858;SDS011;75115;42.984;23.244;2024-02-23T01:20:14;16.15;;;8.50;;
84858;SDS011;75115;42.984;23.244;2024-02-23T01:22:40;18.77;;;8.18;;
84858;SDS011;75115;42.984;23.244;2024-02-23T01:25:05;17.50;;;7.72;;
84858;SDS011;75115;42.984;23.244;2024-02-23T01:27:31;18.42;;;9.52;;
84858;SDS011;75115;42.984;23.244;2024-02-23T01:29:56;16.10;;;8.32;;
84858;SDS011;75115;42.984;23.244;2024-02-23T01:32:22;21.17;;;9.43;;
84858;SDS011;75115;42.984;23.244;2024-02-23T01:34:47;17.33;;;8.85;;
84858;SDS011;75115;42.984;23.244;2024-02-23T01:37:13;16.80;;;8.73;;
84858;SDS011;75115;42.984;23.244;2024-02-23T01:39:38;19.85;;;7.88;;
84858;SDS011;75115;42.984;23.244;2024-02-23T01:42:04;18.52;;;8.13;;
84858;SDS011;75115;42.984;23.244;2024-02-23T01:44:29;16.98;;;8.52;;
84858;SDS011;75115;42.984;23.244;2024-02-23T01:46:55;14.02;;;7.60;;
84858;SDS011;75115;42.984;23.244;2024-02-23T01:49:20;14.63;;;7.80;;
84858;SDS011;75115;42.984;23.244;2024-02-23T01:51:47;15.57;;;8.50;;
84858;SDS011;75115;42.984;23.244;2024-02-23T01:54:14;14.75;;;7.63;;
84858;SDS011;75115;42.984;23.244;2024-02-23T01:56:40;14.98;;;7.40;;
84858;SDS011;75115;42.984;23.244;2024-02-23T01:59:05;14.07;;;7.50;;
84858;SDS011;75115;42.984;23.244;2024-02-23T02:01:31;13.90;;;7.90;;
84858;SDS011;75115;42.984;23.244;2024-02-23T02:03:57;14.70;;;7.90;;
84858;SDS011;75115;42.984;23.244;2024-02-23T02:06:24;14.80;;;7.97;;
84858;SDS011;75115;42.984;23.244;2024-02-23T02:08:49;14.32;;;7.63;;
84858;SDS011;75115;42.984;23.244;2024-02-23T02:11:15;12.48;;;6.97;;
84858;SDS011;75115;42.984;23.244;2024-02-23T02:13:41;19.05;;;8.93;;
84858;SDS011;75115;42.984;23.244;2024-02-23T02:16:06;16.08;;;8.13;;
84858;SDS011;75115;42.984;23.244;2024-02-23T02:18:32;14.52;;;7.28;;
84858;SDS011;75115;42.984;23.244;2024-02-23T02:20:57;13.68;;;8.15;;
84858;SDS011;75115;42.984;23.244;2024-02-23T02:23:24;13.77;;;7.40;;
84858;SDS011;75115;42.984;23.244;2024-02-23T02:25:58;13.52;;;7.35;;
84858;SDS011;75115;42.984;23.244;2024-02-23T02:28:24;14.50;;;7.72;;
84858;SDS011;75115;42.984;23.244;2024-02-23T02:30:50;14.65;;;7.22;;
84858;SDS011;75115;42.984;23.244;2024-02-23T02:33:17;14.27;;;7.90;;
84858;SDS011;75115;42.984;23.244;2024-02-23T02:35:43;14.35;;;7.88;;
84858;SDS011;75115;42.984;23.244;2024-02-23T02:38:10;15.25;;;8.57;;
84858;SDS011;75115;42.984;23.244;2024-02-23T02:40:35;12.77;;;7.47;;
84858;SDS011;75115;42.984;23.244;2024-02-23T02:43:01;14.73;;;7.32;;
84858;SDS011;75115;42.984;23.244;2024-02-23T02:45:26;15.05;;;7.80;;
84858;SDS011;75115;42.984;23.244;2024-02-23T02:47:51;17.50;;;7.97;;
84858;SDS011;75115;42.984;23.244;2024-02-23T02:50:17;15.88;;;7.63;;
84858;SDS011;75115;42.984;23.244;2024-02-23T02:52:42;12.60;;;7.07;;
84858;SDS011;75115;42.984;23.244;2024-02-23T02:55:08;15.55;;;7.88;;
84858;SDS011;75115;42.984;23.244;2024-02-23T02:57:33;15.10;;;7.10;;
84858;SDS011;75115;42.984;23.244;2024-02-23T03:00:01;14.55;;;8.18;;
84858;SDS011;75115;42.984;23.244;2024-02-23T03:02:30;13.40;;;7.50;;
84858;SDS011;75115;42.984;23.244;2024-02-23T03:04:55;20.33;;;7.70;;
84858;SDS011;75115;42.984;23.244;2024-02-23T03:07:21;12.82;;;6.70;;
84858;SDS011;75115;42.984;23.244;2024-02-23T03:09:46;12.73;;;7.00;;
84858;SDS011;75115;42.984;23.244;2024-02-23T03:12:11;14.93;;;8.20;;
84858;SDS011;75115;42.984;23.244;2024-02-23T03:14:37;16.13;;;7.43;;
84858;SDS011;75115;42.984;23.244;2024-02-23T03:17:05;17.77;;;7.43;;
84858;SDS011;75115;42.984;23.244;2024-02-23T03:19:31;14.32;;;7.47;;
84858;SDS011;75115;42.984;23.244;2024-02-23T03:21:57;14.32;;;7.68;;
84858;SDS011;75115;42.984;23.244;2024-02-23T03:24:23;13.52;;;7.03;;
84858;SDS011;75115;42.984;23.244;2024-02-23T03:26:48;13.25;;;7.18;;
84858;SDS011;75115;42.984;23.244;2024-02-23T03:29:14;12.88;;;6.97;;
84858;SDS011;75115;42.984;23.244;2024-02-23T03:31:39;12.75;;;6.57;;
84858;SDS011;75115;42.984;23.244;2024-02-23T03:34:05;15.18;;;7.78;;
84858;SDS011;75115;42.984;23.244;2024-02-23T03:36:30;10.98;;;6.15;;
84858;SDS011;75115;42.984;23.244;2024-02-23T03:38:55;11.18;;;6.75;;
84858;SDS011;75115;42.984;23.244;2024-02-23T03:41:21;15.88;;;7.15;;
84858;SDS011;75115;42.984;23.244;2024-02-23T03:43:46;11.60;;;6.40;;
84858;SDS011;75115;42.984;23.244;2024-02-23T03:46:12;14.57;;;6.85;;
84858;SDS011;75115;42.984;23.244;2024-02-23T03:48:37;11.65;;;6.50;;
84858;SDS011;75115;42.984;23.244;2024-02-23T03:51:03;17.40;;;7.43;;
84858;SDS011;75115;42.984;23.244;2024-02-23T03:53:30;13.70;;;7.68;;
84858;SDS011;75115;42.984;23.244;2024-02-23T03:55:56;13.52;;;7.43;;
84858;SDS011;75115;42.984;23.244;2024-02-23T03:58:22;28.90;;;13.48;;
84858;SDS011;75115;42.984;23.244;2024-02-23T04:00:47;23.92;;;12.63;;
84858;SDS011;75115;42.984;23.244;2024-02-23T04:03:13;55.55;;;27.25;;
84858;SDS011;75115;42.984;23.244;2024-02-23T04:05:38;28.88;;;14.68;;
84858;SDS011;75115;42.984;23.244;2024-02-23T04:08:03;50.08;;;22.63;;
84858;SDS011;75115;42.984;23.244;2024-02-23T04:10:29;71.03;;;32.22;;
84858;SDS011;75115;42.984;23.244;2024-02-23T04:12:54;50.95;;;23.95;;
84858;SDS011;75115;42.984;23.244;2024-02-23T04:15:20;22.10;;;12.70;;
84858;SDS011;75115;42.984;23.244;2024-02-23T04:17:46;25.88;;;12.15;;
84858;SDS011;75115;42.984;23.244;2024-02-23T04:20:11;24.50;;;12.15;;
84858;SDS011;75115;42.984;23.244;2024-02-23T04:22:37;20.88;;;10.45;;
84858;SDS011;75115;42.984;23.244;2024-02-23T04:25:03;16.67;;;8.30;;
84858;SDS011;75115;42.984;23.244;2024-02-23T04:27:30;15.95;;;8.93;;
84858;SDS011;75115;42.984;23.244;2024-02-23T04:29:55;15.55;;;9.20;;
84858;SDS011;75115;42.984;23.244;2024-02-23T04:32:21;12.90;;;7.63;;
84858;SDS011;75115;42.984;23.244;2024-02-23T04:34:46;19.63;;;10.93;;
84858;SDS011;75115;42.984;23.244;2024-02-23T04:37:12;17.65;;;9.57;;
84858;SDS011;75115;42.984;23.244;2024-02-23T04:39:37;19.95;;;11.15;;
84858;SDS011;75115;42.984;23.244;2024-02-23T04:42:03;21.77;;;11.32;;
84858;SDS011;75115;42.984;23.244;2024-02-23T04:44:29;18.55;;;9.70;;
84858;SDS011;75115;42.984;23.244;2024-02-23T04:46:54;20.83;;;11.52;;
84858;SDS011;75115;42.984;23.244;2024-02-23T04:49:20;20.17;;;11.80;;
84858;SDS011;75115;42.984;23.244;2024-02-23T04:51:45;26.55;;;16.50;;
84858;SDS011;75115;42.984;23.244;2024-02-23T04:54:11;21.80;;;12.10;;
84858;SDS011;75115;42.984;23.244;2024-02-23T04:56:36;21.40;;;11.43;;
84858;SDS011;75115;42.984;23.244;2024-02-23T04:59:01;26.25;;;16.90;;
84858;SDS011;75115;42.984;23.244;2024-02-23T05:01:28;15.48;;;8.93;;
84858;SDS011;75115;42.984;23.244;2024-02-23T05:03:53;18.05;;;12.25;;
84858;SDS011;75115;42.984;23.244;2024-02-23T05:06:19;16.70;;;10.13;;
84858;SDS011;75115;42.984;23.244;2024-02-23T05:08:44;17.38;;;11.60;;
84858;SDS011;75115;42.984;23.244;2024-02-23T05:11:09;16.17;;;9.45;;
84858;SDS011;75115;42.984;23.244;2024-02-23T05:13:35;14.73;;;9.23;;
84858;SDS011;75115;42.984;23.244;2024-02-23T05:16:01;24.85;;;13.00;;
84858;SDS011;75115;42.984;23.244;2024-02-23T05:18:27;18.52;;;9.80;;
84858;SDS011;75115;42.984;23.244;2024-02-23T05:20:53;15.40;;;7.60;;
84858;SDS011;75115;42.984;23.244;2024-02-23T05:23:18;15.13;;;8.52;;
84858;SDS011;75115;42.984;23.244;2024-02-23T05:25:44;21.08;;;9.98;;
84858;SDS011;75115;42.984;23.244;2024-02-23T05:28:09;13.82;;;7.60;;
84858;SDS011;75115;42.984;23.244;2024-02-23T05:30:34;12.85;;;7.20;;
84858;SDS011;75115;42.984;23.244;2024-02-23T05:33:00;20.40;;;10.18;;
84858;SDS011;75115;42.984;23.244;2024-02-23T05:37:54;22.63;;;10.57;;
84858;SDS011;75115;42.984;23.244;2024-02-23T05:40:20;14.77;;;8.10;;
84858;SDS011;75115;42.984;23.244;2024-02-23T05:42:46;12.25;;;6.40;;
84858;SDS011;75115;42.984;23.244;2024-02-23T05:45:11;13.43;;;7.40;;
84858;SDS011;75115;42.984;23.244;2024-02-23T05:47:40;12.68;;;6.90;;
84858;SDS011;75115;42.984;23.244;2024-02-23T05:50:07;13.18;;;7.40;;
84858;SDS011;75115;42.984;23.244;2024-02-23T05:52:34;21.33;;;10.57;;
84858;SDS011;75115;42.984;23.244;2024-02-23T05:55:00;16.92;;;9.82;;
84858;SDS011;75115;42.984;23.244;2024-02-23T05:57:26;16.70;;;8.23;;
84858;SDS011;75115;42.984;23.244;2024-02-23T05:59:52;15.07;;;6.45;;
84858;SDS011;75115;42.984;23.244;2024-02-23T06:02:18;14.77;;;8.40;;
84858;SDS011;75115;42.984;23.244;2024-02-23T06:04:43;15.70;;;8.63;;
84858;SDS011;75115;42.984;23.244;2024-02-23T06:07:08;19.88;;;10.40;;
84858;SDS011;75115;42.984;23.244;2024-02-23T06:09:34;29.58;;;14.63;;
84858;SDS011;75115;42.984;23.244;2024-02-23T06:11:59;27.77;;;13.02;;
84858;SDS011;75115;42.984;23.244;2024-02-23T06:14:25;22.90;;;11.13;;
84858;SDS011;75115;42.984;23.244;2024-02-23T06:16:50;20.67;;;11.20;;
84858;SDS011;75115;42.984;23.244;2024-02-23T06:19:16;19.75;;;11.02;;
84858;SDS011;75115;42.984;23.244;2024-02-23T06:21:41;19.02;;;11.85;;
84858;SDS011;75115;42.984;23.244;2024-02-23T06:24:06;18.05;;;11.13;;
84858;SDS011;75115;42.984;23.244;2024-02-23T06:26:33;18.35;;;12.20;;
84858;SDS011;75115;42.984;23.244;2024-02-23T06:28:59;16.33;;;10.27;;
84858;SDS011;75115;42.984;23.244;2024-02-23T06:31:25;12.32;;;8.07;;
84858;SDS011;75115;42.984;23.244;2024-02-23T06:33:50;13.55;;;9.40;;
84858;SDS011;75115;42.984;23.244;2024-02-23T06:36:17;15.25;;;8.80;;
84858;SDS011;75115;42.984;23.244;2024-02-23T06:38:43;10.93;;;8.38;;
84858;SDS011;75115;42.984;23.244;2024-02-23T06:41:10;23.40;;;15.20;;
84858;SDS011;75115;42.984;23.244;2024-02-23T06:43:36;15.68;;;10.65;;
84858;SDS011;75115;42.984;23.244;2024-02-23T06:46:08;15.45;;;11.82;;
84858;SDS011;75115;42.984;23.244;2024-02-23T06:48:34;12.55;;;8.93;;
84858;SDS011;75115;42.984;23.244;2024-02-23T06:51:03;12.60;;;7.70;;
84858;SDS011;75115;42.984;23.244;2024-02-23T06:53:30;15.48;;;9.60;;
84858;SDS011;75115;42.984;23.244;2024-02-23T06:55:55;9.32;;;6.53;;
84858;SDS011;75115;42.984;23.244;2024-02-23T06:58:21;10.45;;;7.35;;
84858;SDS011;75115;42.984;23.244;2024-02-23T07:00:46;16.42;;;10.25;;
84858;SDS011;75115;42.984;23.244;2024-02-23T07:03:12;13.23;;;10.63;;
84858;SDS011;75115;42.984;23.244;2024-02-23T07:05:39;19.60;;;13.80;;
84858;SDS011;75115;42.984;23.244;2024-02-23T07:10:32;16.48;;;10.82;;
84858;SDS011;75115;42.984;23.244;2024-02-23T07:12:57;13.00;;;8.25;;
84858;SDS011;75115;42.984;23.244;2024-02-23T07:15:23;6.80;;;5.18;;
84858;SDS011;75115;42.984;23.244;2024-02-23T07:17:49;9.00;;;5.80;;
84858;SDS011;75115;42.984;23.244;2024-02-23T07:20:15;8.00;;;5.78;;
84858;SDS011;75115;42.984;23.244;2024-02-23T07:22:43;8.85;;;5.22;;
84858;SDS011;75115;42.984;23.244;2024-02-23T07:25:09;10.18;;;6.28;;
84858;SDS011;75115;42.984;23.244;2024-02-23T07:27:35;9.23;;;5.75;;
84858;SDS011;75115;42.984;23.244;2024-02-23T07:30:00;9.77;;;6.57;;
84858;SDS011;75115;42.984;23.244;2024-02-23T07:32:26;8.98;;;5.63;;
84858;SDS011;75115;42.984;23.244;2024-02-23T07:34:52;8.93;;;5.47;;
84858;SDS011;75115;42.984;23.244;2024-02-23T07:37:17;8.23;;;6.07;;
84858;SDS011;75115;42.984;23.244;2024-02-23T07:39:43;7.78;;;6.15;;
84858;SDS011;75115;42.984;23.244;2024-02-23T07:42:08;10.57;;;5.05;;
84858;SDS011;75115;42.984;23.244;2024-02-23T07:44:35;9.73;;;5.25;;
84858;SDS011;75115;42.984;23.244;2024-02-23T07:47:02;8.25;;;5.50;;
84858;SDS011;75115;42.984;23.244;2024-02-23T07:49:28;9.90;;;4.90;;
84858;SDS011;75115;42.984;23.244;2024-02-23T07:51:54;9.93;;;4.95;;
84858;SDS011;75115;42.984;23.244;2024-02-23T07:54:19;9.70;;;6.05;;
84858;SDS011;75115;42.984;23.244;2024-02-23T07:56:45;13.23;;;6.18;;
84858;SDS011;75115;42.984;23.244;2024-02-23T07:59:10;14.13;;;7.97;;
84858;SDS011;75115;42.984;23.244;2024-02-23T08:01:38;9.68;;;5.53;;
84858;SDS011;75115;42.984;23.244;2024-02-23T08:04:05;11.18;;;6.25;;
84858;SDS011;75115;42.984;23.244;2024-02-23T08:06:30;9.73;;;5.63;;
84858;SDS011;75115;42.984;23.244;2024-02-23T08:08:56;18.27;;;8.30;;
84858;SDS011;75115;42.984;23.244;2024-02-23T08:11:21;10.98;;;5.15;;
84858;SDS011;75115;42.984;23.244;2024-02-23T08:13:46;9.90;;;4.78;;
84858;SDS011;75115;42.984;23.244;2024-02-23T08:16:12;10.52;;;5.70;;
84858;SDS011;75115;42.984;23.244;2024-02-23T08:18:37;10.25;;;4.78;;
84858;SDS011;75115;42.984;23.244;2024-02-23T08:21:03;8.88;;;4.65;;
84858;SDS011;75115;42.984;23.244;2024-02-23T08:23:30;8.60;;;5.38;;
84858;SDS011;75115;42.984;23.244;2024-02-23T08:25:56;10.13;;;4.88;;
84858;SDS011;75115;42.984;23.244;2024-02-23T08:28:23;7.80;;;5.13;;
84858;SDS011;75115;42.984;23.244;2024-02-23T08:30:49;8.73;;;4.63;;
84858;SDS011;75115;42.984;23.244;2024-02-23T08:33:14;8.50;;;5.53;;
84858;SDS011;75115;42.984;23.244;2024-02-23T08:35:39;7.57;;;4.43;;
84858;SDS011;75115;42.984;23.244;2024-02-23T08:38:05;8.48;;;4.65;;
84858;SDS011;75115;42.984;23.244;2024-02-23T08:40:30;10.32;;;4.68;;
84858;SDS011;75115;42.984;23.244;2024-02-23T08:42:56;9.50;;;4.43;;
84858;SDS011;75115;42.984;23.244;2024-02-23T08:45:21;11.35;;;5.70;;
84858;SDS011;75115;42.984;23.244;2024-02-23T08:47:47;7.60;;;4.78;;
84858;SDS011;75115;42.984;23.244;2024-02-23T08:50:12;6.65;;;4.20;;
84858;SDS011;75115;42.984;23.244;2024-02-23T08:52:39;8.60;;;4.78;;
84858;SDS011;75115;42.984;23.244;2024-02-23T08:55:05;6.55;;;4.15;;
84858;SDS011;75115;42.984;23.244;2024-02-23T08:57:30;8.73;;;4.43;;
84858;SDS011;75115;42.984;23.244;2024-02-23T08:59:55;5.40;;;3.47;;
84858;SDS011;75115;42.984;23.244;2024-02-23T09:02:23;10.02;;;5.78;;
84858;SDS011;75115;42.984;23.244;2024-02-23T09:04:53;7.82;;;4.05;;
84858;SDS011;75115;42.984;23.244;2024-02-23T09:07:20;7.35;;;4.80;;
84858;SDS011;75115;42.984;23.244;2024-02-23T09:09:46;4.55;;;3.63;;
84858;SDS011;75115;42.984;23.244;2024-02-23T09:12:13;3.75;;;2.60;;
84858;SDS011;75115;42.984;23.244;2024-02-23T09:14:39;3.80;;;2.45;;
84858;SDS011;75115;42.984;23.244;2024-02-23T09:17:06;4.22;;;2.75;;
84858;SDS011;75115;42.984;23.244;2024-02-23T09:19:35;4.25;;;2.92;;
84858;SDS011;75115;42.984;23.244;2024-02-23T09:22:04;32.88;;;16.88;;
84858;SDS011;75115;42.984;23.244;2024-02-23T09:24:30;3.50;;;2.20;;
84858;SDS011;75115;42.984;23.244;2024-02-23T09:26:55;4.75;;;2.88;;
84858;SDS011;75115;42.984;23.244;2024-02-23T09:29:21;4.30;;;3.20;;
84858;SDS011;75115;42.984;23.244;2024-02-23T09:31:47;3.35;;;2.50;;
84858;SDS011;75115;42.984;23.244;2024-02-23T09:34:12;3.45;;;2.10;;
84858;SDS011;75115;42.984;23.244;2024-02-23T09:36:39;3.20;;;2.03;;
84858;SDS011;75115;42.984;23.244;2024-02-23T09:39:04;3.78;;;2.17;;
84858;SDS011;75115;42.984;23.244;2024-02-23T09:41:30;5.53;;;3.55;;
84858;SDS011;75115;42.984;23.244;2024-02-23T09:43:58;2.65;;;2.05;;
84858;SDS011;75115;42.984;23.244;2024-02-23T09:46:24;4.47;;;2.67;;
84858;SDS011;75115;42.984;23.244;2024-02-23T09:48:51;3.53;;;2.83;;
84858;SDS011;75115;42.984;23.244;2024-02-23T09:51:16;5.00;;;2.20;;
84858;SDS011;75115;42.984;23.244;2024-02-23T09:53:43;5.70;;;3.03;;
84858;SDS011;75115;42.984;23.244;2024-02-23T09:56:09;3.25;;;2.40;;
84858;SDS011;75115;42.984;23.244;2024-02-23T09:58:35;2.78;;;1.90;;
84858;SDS011;75115;42.984;23.244;2024-02-23T10:01:02;2.45;;;1.83;;
84858;SDS011;75115;42.984;23.244;2024-02-23T10:03:28;3.97;;;2.22;;
84858;SDS011;75115;42.984;23.244;2024-02-23T10:05:57;3.55;;;2.00;;
84858;SDS011;75115;42.984;23.244;2024-02-23T10:08:23;16.33;;;7.22;;
84858;SDS011;75115;42.984;23.244;2024-02-23T10:10:49;5.22;;;3.53;;
84858;SDS011;75115;42.984;23.244;2024-02-23T10:13:18;3.17;;;2.28;;
84858;SDS011;75115;42.984;23.244;2024-02-23T10:15:46;6.35;;;3.95;;
84858;SDS011;75115;42.984;23.244;2024-02-23T10:18:12;5.15;;;2.92;;
84858;SDS011;75115;42.984;23.244;2024-02-23T10:20:37;3.55;;;2.40;;
84858;SDS011;75115;42.984;23.244;2024-02-23T10:23:04;3.40;;;2.35;;
84858;SDS011;75115;42.984;23.244;2024-02-23T10:25:29;3.72;;;2.08;;
84858;SDS011;75115;42.984;23.244;2024-02-23T10:27:55;2.97;;;1.75;;
84858;SDS011;75115;42.984;23.244;2024-02-23T10:30:20;2.58;;;1.98;;
84858;SDS011;75115;42.984;23.244;2024-02-23T10:32:46;3.28;;;1.98;;
84858;SDS011;75115;42.984;23.244;2024-02-23T10:35:16;9.02;;;5.05;;
84858;SDS011;75115;42.984;23.244;2024-02-23T10:37:45;4.97;;;2.53;;
84858;SDS011;75115;42.984;23.244;2024-02-23T10:40:17;5.00;;;3.50;;
84858;SDS011;75115;42.984;23.244;2024-02-23T10:42:44;14.15;;;7.53;;
84858;SDS011;75115;42.984;23.244;2024-02-23T10:45:16;6.43;;;3.63;;
84858;SDS011;75115;42.984;23.244;2024-02-23T10:47:43;3.10;;;1.75;;
84858;SDS011;75115;42.984;23.244;2024-02-23T10:50:09;5.55;;;3.50;;
84858;SDS011;75115;42.984;23.244;2024-02-23T10:52:36;2.40;;;1.90;;
84858;SDS011;75115;42.984;23.244;2024-02-23T10:55:04;5.05;;;2.33;;
84858;SDS011;75115;42.984;23.244;2024-02-23T10:57:36;3.47;;;2.10;;
84858;SDS011;75115;42.984;23.244;2024-02-23T11:00:03;4.50;;;1.92;;
84858;SDS011;75115;42.984;23.244;2024-02-23T11:02:33;2.85;;;1.73;;
84858;SDS011;75115;42.984;23.244;2024-02-23T11:05:05;3.08;;;2.17;;
84858;SDS011;75115;42.984;23.244;2024-02-23T11:07:37;2.83;;;2.20;;
84858;SDS011;75115;42.984;23.244;2024-02-23T11:10:04;4.47;;;2.40;;
84858;SDS011;75115;42.984;23.244;2024-02-23T11:12:30;2.47;;;1.73;;
84858;SDS011;75115;42.984;23.244;2024-02-23T11:14:59;3.30;;;2.13;;
84858;SDS011;75115;42.984;23.244;2024-02-23T11:17:32;4.32;;;2.83;;
84858;SDS011;75115;42.984;23.244;2024-02-23T11:20:02;5.25;;;2.20;;
84858;SDS011;75115;42.984;23.244;2024-02-23T11:22:34;3.97;;;2.38;;
84858;SDS011;75115;42.984;23.244;2024-02-23T11:25:01;3.50;;;2.35;;
84858;SDS011;75115;42.984;23.244;2024-02-23T11:27:30;3.50;;;2.50;;
84858;SDS011;75115;42.984;23.244;2024-02-23T11:30:04;3.78;;;2.28;;
84858;SDS011;75115;42.984;23.244;2024-02-23T11:32:37;3.40;;;2.30;;
84858;SDS011;75115;42.984;23.244;2024-02-23T11:35:07;6.40;;;3.13;;
84858;SDS011;75115;42.984;23.244;2024-02-23T11:37:46;3.17;;;2.50;;
84858;SDS011;75115;42.984;23.244;2024-02-23T11:40:13;3.75;;;2.67;;
84858;SDS011;75115;42.984;23.244;2024-02-23T11:42:40;4.50;;;2.88;;
84858;SDS011;75115;42.984;23.244;2024-02-23T11:45:07;8.63;;;4.55;;
84858;SDS011;75115;42.984;23.244;2024-02-23T11:47:33;4.10;;;2.05;;
84858;SDS011;75115;42.984;23.244;2024-02-23T11:49:58;9.40;;;4.93;;
84858;SDS011;75115;42.984;23.244;2024-02-23T11:52:24;5.45;;;3.90;;
84858;SDS011;75115;42.984;23.244;2024-02-23T11:54:50;3.88;;;1.98;;
84858;SDS011;75115;42.984;23.244;2024-02-23T11:57:16;10.48;;;3.00;;
84858;SDS011;75115;42.984;23.244;2024-02-23T11:59:41;4.22;;;2.50;;
84858;SDS011;75115;42.984;23.244;2024-02-23T12:02:07;3.40;;;2.60;;
84858;SDS011;75115;42.984;23.244;2024-02-23T12:04:32;2.67;;;1.70;;
84858;SDS011;75115;42.984;23.244;2024-02-23T12:06:58;3.83;;;2.05;;
84858;SDS011;75115;42.984;23.244;2024-02-23T12:09:25;2.95;;;1.85;;
84858;SDS011;75115;42.984;23.244;2024-02-23T12:11:51;2.40;;;1.80;;
84858;SDS011;75115;42.984;23.244;2024-02-23T12:14:17;5.30;;;2.88;;
84858;SDS011;75115;42.984;23.244;2024-02-23T12:16:42;3.42;;;2.00;;
84858;SDS011;75115;42.984;23.244;2024-02-23T12:19:08;4.22;;;2.53;;
84858;SDS011;75115;42.984;23.244;2024-02-23T12:21:37;7.65;;;3.70;;
84858;SDS011;75115;42.984;23.244;2024-02-23T12:24:05;4.15;;;1.92;;
84858;SDS011;75115;42.984;23.244;2024-02-23T12:26:34;3.28;;;1.92;;
84858;SDS011;75115;42.984;23.244;2024-02-23T12:29:00;3.53;;;1.77;;
84858;SDS011;75115;42.984;23.244;2024-02-23T12:31:28;4.85;;;2.22;;
84858;SDS011;75115;42.984;23.244;2024-02-23T12:33:56;7.40;;;3.35;;
84858;SDS011;75115;42.984;23.244;2024-02-23T12:36:22;8.60;;;4.25;;
84858;SDS011;75115;42.984;23.244;2024-02-23T12:38:48;11.40;;;4.45;;
84858;SDS011;75115;42.984;23.244;2024-02-23T12:41:14;15.20;;;6.05;;
84858;SDS011;75115;42.984;23.244;2024-02-23T12:43:39;2.42;;;1.75;;
84858;SDS011;75115;42.984;23.244;2024-02-23T12:46:05;1.52;;;1.30;;
84858;SDS011;75115;42.984;23.244;2024-02-23T12:48:31;3.58;;;2.20;;
84858;SDS011;75115;42.984;23.244;2024-02-23T12:50:57;9.55;;;4.80;;
84858;SDS011;75115;42.984;23.244;2024-02-23T12:53:32;3.55;;;1.30;;
84858;SDS011;75115;42.984;23.244;2024-02-23T12:56:01;21.67;;;2.60;;
84858;SDS011;75115;42.984;23.244;2024-02-23T12:58:32;3.30;;;2.00;;
84858;SDS011;75115;42.984;23.244;2024-02-23T13:01:05;2.85;;;1.65;;
84858;SDS011;75115;42.984;23.244;2024-02-23T13:03:32;5.05;;;3.03;;
84858;SDS011;75115;42.984;23.244;2024-02-23T13:05:58;4.03;;;2.08;;
84858;SDS011;75115;42.984;23.244;2024-02-23T13:08:25;6.68;;;2.63;;
84858;SDS011;75115;42.984;23.244;2024-02-23T13:10:51;3.30;;;2.42;;
84858;SDS011;75115;42.984;23.244;2024-02-23T13:13:18;2.33;;;1.83;;
84858;SDS011;75115;42.984;23.244;2024-02-23T13:15:44;4.45;;;2.65;;
84858;SDS011;75115;42.984;23.244;2024-02-23T13:18:10;2.20;;;1.60;;
84858;SDS011;75115;42.984;23.244;2024-02-23T13:20:36;2.58;;;1.60;;
84858;SDS011;75115;42.984;23.244;2024-02-23T13:23:02;1.25;;;1.02;;
84858;SDS011;75115;42.984;23.244;2024-02-23T13:25:28;2.38;;;1.65;;
84858;SDS011;75115;42.984;23.244;2024-02-23T13:27:54;2.50;;;1.80;;
84858;SDS011;75115;42.984;23.244;2024-02-23T13:30:19;2.58;;;0.98;;
84858;SDS011;75115;42.984;23.244;2024-02-23T13:32:45;2.45;;;1.50;;
84858;SDS011;75115;42.984;23.244;2024-02-23T13:35:10;2.33;;;1.85;;
84858;SDS011;75115;42.984;23.244;2024-02-23T13:37:36;5.93;;;3.33;;
84858;SDS011;75115;42.984;23.244;2024-02-23T13:40:01;3.20;;;2.28;;
84858;SDS011;75115;42.984;23.244;2024-02-23T13:42:28;6.60;;;1.85;;
84858;SDS011;75115;42.984;23.244;2024-02-23T13:44:54;2.88;;;1.45;;
84858;SDS011;75115;42.984;23.244;2024-02-23T13:47:19;2.40;;;1.50;;
84858;SDS011;75115;42.984;23.244;2024-02-23T13:49:45;2.88;;;2.28;;
84858;SDS011;75115;42.984;23.244;2024-02-23T13:52:10;8.30;;;4.85;;
84858;SDS011;75115;42.984;23.244;2024-02-23T13:54:36;6.18;;;3.45;;
84858;SDS011;75115;42.984;23.244;2024-02-23T13:57:01;3.42;;;2.30;;
84858;SDS011;75115;42.984;23.244;2024-02-23T13:59:29;7.90;;;4.63;;
84858;SDS011;75115;42.984;23.244;2024-02-23T14:01:54;2.53;;;1.92;;
84858;SDS011;75115;42.984;23.244;2024-02-23T14:04:20;6.70;;;3.33;;
84858;SDS011;75115;42.984;23.244;2024-02-23T14:06:45;9.85;;;3.28;;
84858;SDS011;75115;42.984;23.244;2024-02-23T14:09:11;2.83;;;1.88;;
84858;SDS011;75115;42.984;23.244;2024-02-23T14:11:36;4.78;;;3.70;;
84858;SDS011;75115;42.984;23.244;2024-02-23T14:14:02;8.63;;;5.03;;
84858;SDS011;75115;42.984;23.244;2024-02-23T14:16:28;12.85;;;8.23;;
84858;SDS011;75115;42.984;23.244;2024-02-23T14:18:53;4.25;;;1.98;;
84858;SDS011;75115;42.984;23.244;2024-02-23T14:21:20;4.75;;;3.25;;
84858;SDS011;75115;42.984;23.244;2024-02-23T14:23:47;4.45;;;3.30;;
84858;SDS011;75115;42.984;23.244;2024-02-23T14:26:13;3.08;;;2.03;;